sensor_id;sensor_type;location;lat;lon;timestamp;temperature;humidity
14053;DHT22;7101;51.600;7.310;2022-09-16T00:00:40;13.50;67.20
14053;DHT22;7101;51.600;7.310;2022-09-16T00:03:07;13.50;64.90
14053;DHT22;7101;51.600;7.310;2022-09-16T00:05:33;13.50;59.40
14053;DHT22;7101;51.600;7.310;2022-09-16T00:08:03;13.50;59.20
14053;DHT22;7101;51.600;7.310;2022-09-16T00:10:30;13.40;60.90
14053;DHT22;7101;51.600;7.310;2022-09-16T00:12:57;13.40;58.00
14053;DHT22;7101;51.600;7.310;2022-09-16T00:15:24;13.30;63.10
14053;DHT22;7101;51.600;7.310;2022-09-16T00:17:51;13.30;68.30
14053;DHT22;7101;51.600;7.310;2022-09-16T00:20:18;13.30;65.30
14053;DHT22;7101;51.600;7.310;2022-09-16T00:22:44;13.30;59.20
14053;DHT22;7101;51.600;7.310;2022-09-16T00:25:13;13.40;58.40
14053;DHT22;7101;51.600;7.310;2022-09-16T00:27:40;13.40;55.10
14053;DHT22;7101;51.600;7.310;2022-09-16T00:30:07;13.30;54.10
14053;DHT22;7101;51.600;7.310;2022-09-16T00:32:34;13.30;54.90
14053;DHT22;7101;51.600;7.310;2022-09-16T00:35:02;13.30;58.90
14053;DHT22;7101;51.600;7.310;2022-09-16T00:37:31;13.30;67.70
14053;DHT22;7101;51.600;7.310;2022-09-16T00:39:57;13.30;83.20
14053;DHT22;7101;51.600;7.310;2022-09-16T00:42:26;13.20;76.10
14053;DHT22;7101;51.600;7.310;2022-09-16T00:44:56;13.20;84.30
14053;DHT22;7101;51.600;7.310;2022-09-16T00:47:27;13.10;91.70
14053;DHT22;7101;51.600;7.310;2022-09-16T00:49:58;13.20;94.20
14053;DHT22;7101;51.600;7.310;2022-09-16T00:52:29;13.10;97.90
14053;DHT22;7101;51.600;7.310;2022-09-16T00:54:57;13.10;97.10
14053;DHT22;7101;51.600;7.310;2022-09-16T00:57:26;13.10;99.90
14053;DHT22;7101;51.600;7.310;2022-09-16T00:59:53;13.10;99.90
14053;DHT22;7101;51.600;7.310;2022-09-16T01:02:21;13.20;99.90
14053;DHT22;7101;51.600;7.310;2022-09-16T01:04:50;13.10;99.90
14053;DHT22;7101;51.600;7.310;2022-09-16T01:07:26;13.10;99.90
14053;DHT22;7101;51.600;7.310;2022-09-16T01:09:54;13.10;99.90
14053;DHT22;7101;51.600;7.310;2022-09-16T01:12:21;13.10;99.90
14053;DHT22;7101;51.600;7.310;2022-09-16T01:14:50;13.10;99.90
14053;DHT22;7101;51.600;7.310;2022-09-16T01:17:26;13.10;99.90
14053;DHT22;7101;51.600;7.310;2022-09-16T01:23:16;13.00;99.90
14053;DHT22;7101;51.600;7.310;2022-09-16T01:26:01;13.00;99.90
14053;DHT22;7101;51.600;7.310;2022-09-16T01:28:52;13.00;99.90
14053;DHT22;7101;51.600;7.310;2022-09-16T01:31:31;13.00;99.90
14053;DHT22;7101;51.600;7.310;2022-09-16T01:34:05;13.00;99.90
14053;DHT22;7101;51.600;7.310;2022-09-16T01:36:42;13.00;99.90
14053;DHT22;7101;51.600;7.310;2022-09-16T01:39:21;13.10;99.90
14053;DHT22;7101;51.600;7.310;2022-09-16T01:42:00;13.10;99.90
14053;DHT22;7101;51.600;7.310;2022-09-16T01:44:36;13.10;99.90
14053;DHT22;7101;51.600;7.310;2022-09-16T01:47:14;13.10;99.90
14053;DHT22;7101;51.600;7.310;2022-09-16T01:49:45;13.10;99.90
14053;DHT22;7101;51.600;7.310;2022-09-16T01:52:20;13.10;99.90
14053;DHT22;7101;51.600;7.310;2022-09-16T01:54:52;13.10;99.90
14053;DHT22;7101;51.600;7.310;2022-09-16T01:57:25;13.00;99.90
14053;DHT22;7101;51.600;7.310;2022-09-16T01:59:58;13.00;99.90
14053;DHT22;7101;51.600;7.310;2022-09-16T02:02:30;13.10;99.90
14053;DHT22;7101;51.600;7.310;2022-09-16T02:05:02;13.10;99.90
14053;DHT22;7101;51.600;7.310;2022-09-16T02:07:33;13.10;99.90
14053;DHT22;7101;51.600;7.310;2022-09-16T02:10:07;13.00;99.90
14053;DHT22;7101;51.600;7.310;2022-09-16T02:12:38;13.00;99.90
14053;DHT22;7101;51.600;7.310;2022-09-16T02:15:09;13.10;99.90
14053;DHT22;7101;51.600;7.310;2022-09-16T02:17:42;13.10;99.90
14053;DHT22;7101;51.600;7.310;2022-09-16T02:20:14;13.00;99.90
14053;DHT22;7101;51.600;7.310;2022-09-16T02:22:46;13.00;99.90
14053;DHT22;7101;51.600;7.310;2022-09-16T02:25:16;13.00;99.90
14053;DHT22;7101;51.600;7.310;2022-09-16T02:27:45;12.90;99.90
14053;DHT22;7101;51.600;7.310;2022-09-16T02:30:15;13.00;99.90
14053;DHT22;7101;51.600;7.310;2022-09-16T02:32:46;13.00;99.90
14053;DHT22;7101;51.600;7.310;2022-09-16T02:35:17;13.00;99.90
14053;DHT22;7101;51.600;7.310;2022-09-16T02:37:49;13.00;99.90
14053;DHT22;7101;51.600;7.310;2022-09-16T02:40:20;13.00;99.90
14053;DHT22;7101;51.600;7.310;2022-09-16T02:42:48;13.00;99.90
14053;DHT22;7101;51.600;7.310;2022-09-16T02:45:15;12.90;99.90
14053;DHT22;7101;51.600;7.310;2022-09-16T02:47:50;12.90;99.90
14053;DHT22;7101;51.600;7.310;2022-09-16T02:50:26;12.80;99.90
14053;DHT22;7101;51.600;7.310;2022-09-16T02:52:57;12.80;99.90
14053;DHT22;7101;51.600;7.310;2022-09-16T02:55:32;12.80;99.90
14053;DHT22;7101;51.600;7.310;2022-09-16T02:58:01;12.80;99.90
14053;DHT22;7101;51.600;7.310;2022-09-16T03:00:30;12.80;99.90
14053;DHT22;7101;51.600;7.310;2022-09-16T03:03:01;12.90;99.90
14053;DHT22;7101;51.600;7.310;2022-09-16T03:05:28;12.90;99.90
14053;DHT22;7101;51.600;7.310;2022-09-16T03:07:55;12.90;99.90
14053;DHT22;7101;51.600;7.310;2022-09-16T03:10:26;12.90;99.90
14053;DHT22;7101;51.600;7.310;2022-09-16T03:13:00;12.90;99.90
14053;DHT22;7101;51.600;7.310;2022-09-16T03:15:35;13.00;99.90
14053;DHT22;7101;51.600;7.310;2022-09-16T03:18:27;13.00;99.90
14053;DHT22;7101;51.600;7.310;2022-09-16T03:21:04;13.00;99.90
14053;DHT22;7101;51.600;7.310;2022-09-16T03:23:42;13.00;99.90
14053;DHT22;7101;51.600;7.310;2022-09-16T03:26:18;12.90;99.90
14053;DHT22;7101;51.600;7.310;2022-09-16T03:28:54;12.90;99.90
14053;DHT22;7101;51.600;7.310;2022-09-16T03:31:30;12.90;99.90
14053;DHT22;7101;51.600;7.310;2022-09-16T03:34:03;12.90;99.90
14053;DHT22;7101;51.600;7.310;2022-09-16T03:36:34;12.90;99.90
14053;DHT22;7101;51.600;7.310;2022-09-16T03:39:02;12.80;99.90
14053;DHT22;7101;51.600;7.310;2022-09-16T03:41:31;12.80;99.90
14053;DHT22;7101;51.600;7.310;2022-09-16T03:43:59;12.80;99.90
14053;DHT22;7101;51.600;7.310;2022-09-16T03:46:27;12.80;99.90
14053;DHT22;7101;51.600;7.310;2022-09-16T03:48:54;12.80;99.90
14053;DHT22;7101;51.600;7.310;2022-09-16T03:51:22;12.80;99.90
14053;DHT22;7101;51.600;7.310;2022-09-16T03:53:49;12.80;99.90
14053;DHT22;7101;51.600;7.310;2022-09-16T03:56:16;12.80;99.90
14053;DHT22;7101;51.600;7.310;2022-09-16T03:58:43;12.70;99.90
14053;DHT22;7101;51.600;7.310;2022-09-16T04:01:10;12.80;99.90
14053;DHT22;7101;51.600;7.310;2022-09-16T04:03:36;12.70;99.90
14053;DHT22;7101;51.600;7.310;2022-09-16T04:06:03;12.70;99.90
14053;DHT22;7101;51.600;7.310;2022-09-16T04:08:31;12.60;99.90
14053;DHT22;7101;51.600;7.310;2022-09-16T04:11:00;12.60;99.90
14053;DHT22;7101;51.600;7.310;2022-09-16T04:13:28;12.60;99.90
14053;DHT22;7101;51.600;7.310;2022-09-16T04:15:55;12.50;99.90
14053;DHT22;7101;51.600;7.310;2022-09-16T04:18:22;12.60;99.90
14053;DHT22;7101;51.600;7.310;2022-09-16T04:20:49;12.60;99.90
14053;DHT22;7101;51.600;7.310;2022-09-16T04:23:16;12.50;99.90
14053;DHT22;7101;51.600;7.310;2022-09-16T04:25:53;12.60;99.90
14053;DHT22;7101;51.600;7.310;2022-09-16T04:28:20;12.60;99.90
14053;DHT22;7101;51.600;7.310;2022-09-16T04:30:47;12.60;99.90
14053;DHT22;7101;51.600;7.310;2022-09-16T04:33:14;12.60;99.90
14053;DHT22;7101;51.600;7.310;2022-09-16T04:35:41;12.60;99.90
14053;DHT22;7101;51.600;7.310;2022-09-16T04:38:08;12.60;99.90
14053;DHT22;7101;51.600;7.310;2022-09-16T04:40:35;12.60;99.90
14053;DHT22;7101;51.600;7.310;2022-09-16T04:43:04;12.70;99.90
14053;DHT22;7101;51.600;7.310;2022-09-16T04:45:31;12.70;99.90
14053;DHT22;7101;51.600;7.310;2022-09-16T04:47:58;12.70;99.90
14053;DHT22;7101;51.600;7.310;2022-09-16T04:50:25;12.70;99.90
14053;DHT22;7101;51.600;7.310;2022-09-16T04:52:52;12.70;99.90
14053;DHT22;7101;51.600;7.310;2022-09-16T04:55:19;12.70;99.90
14053;DHT22;7101;51.600;7.310;2022-09-16T04:57:47;12.70;99.90
14053;DHT22;7101;51.600;7.310;2022-09-16T05:00:16;12.70;99.90
14053;DHT22;7101;51.600;7.310;2022-09-16T05:02:43;12.70;99.90
14053;DHT22;7101;51.600;7.310;2022-09-16T05:05:10;12.70;99.90
14053;DHT22;7101;51.600;7.310;2022-09-16T05:07:37;12.70;99.90
14053;DHT22;7101;51.600;7.310;2022-09-16T05:10:04;12.70;99.90
14053;DHT22;7101;51.600;7.310;2022-09-16T05:12:31;12.70;99.90
14053;DHT22;7101;51.600;7.310;2022-09-16T05:14:58;12.70;99.90
14053;DHT22;7101;51.600;7.310;2022-09-16T05:17:28;12.70;99.90
14053;DHT22;7101;51.600;7.310;2022-09-16T05:19:55;12.70;99.90
14053;DHT22;7101;51.600;7.310;2022-09-16T05:22:22;12.70;99.90
14053;DHT22;7101;51.600;7.310;2022-09-16T05:24:49;12.70;99.90
14053;DHT22;7101;51.600;7.310;2022-09-16T05:27:16;12.70;99.90
14053;DHT22;7101;51.600;7.310;2022-09-16T05:29:43;12.70;99.90
14053;DHT22;7101;51.600;7.310;2022-09-16T05:32:09;12.70;99.90
14053;DHT22;7101;51.600;7.310;2022-09-16T05:34:38;12.70;99.90
14053;DHT22;7101;51.600;7.310;2022-09-16T05:37:05;12.80;99.90
14053;DHT22;7101;51.600;7.310;2022-09-16T05:39:31;12.80;99.90
14053;DHT22;7101;51.600;7.310;2022-09-16T05:41:59;12.70;99.90
14053;DHT22;7101;51.600;7.310;2022-09-16T05:44:26;12.70;99.90
14053;DHT22;7101;51.600;7.310;2022-09-16T05:46:54;12.70;99.90
14053;DHT22;7101;51.600;7.310;2022-09-16T05:49:21;12.70;99.90
14053;DHT22;7101;51.600;7.310;2022-09-16T05:51:49;12.70;99.90
14053;DHT22;7101;51.600;7.310;2022-09-16T05:54:17;12.70;99.90
14053;DHT22;7101;51.600;7.310;2022-09-16T05:56:45;12.70;99.90
14053;DHT22;7101;51.600;7.310;2022-09-16T05:59:13;12.70;99.90
14053;DHT22;7101;51.600;7.310;2022-09-16T06:01:41;12.80;99.90
14053;DHT22;7101;51.600;7.310;2022-09-16T06:04:11;12.80;99.90
14053;DHT22;7101;51.600;7.310;2022-09-16T06:06:39;12.80;99.90
14053;DHT22;7101;51.600;7.310;2022-09-16T06:09:10;12.90;99.90
14053;DHT22;7101;51.600;7.310;2022-09-16T06:11:40;12.90;99.90
14053;DHT22;7101;51.600;7.310;2022-09-16T06:14:08;13.00;99.90
14053;DHT22;7101;51.600;7.310;2022-09-16T06:16:35;13.10;99.90
14053;DHT22;7101;51.600;7.310;2022-09-16T06:19:04;13.30;99.90
14053;DHT22;7101;51.600;7.310;2022-09-16T06:21:31;13.60;92.20
14053;DHT22;7101;51.600;7.310;2022-09-16T06:23:58;14.10;47.80
14053;DHT22;7101;51.600;7.310;2022-09-16T06:26:26;14.20;21.40
14053;DHT22;7101;51.600;7.310;2022-09-16T06:28:54;14.30;27.40
14053;DHT22;7101;51.600;7.310;2022-09-16T06:31:23;14.40;12.80
14053;DHT22;7101;51.600;7.310;2022-09-16T06:33:51;14.30;16.00
14053;DHT22;7101;51.600;7.310;2022-09-16T06:36:19;14.20;14.00
14053;DHT22;7101;51.600;7.310;2022-09-16T06:38:47;14.10;18.60
14053;DHT22;7101;51.600;7.310;2022-09-16T06:41:16;14.10;21.20
14053;DHT22;7101;51.600;7.310;2022-09-16T06:43:44;14.20;21.30
14053;DHT22;7101;51.600;7.310;2022-09-16T06:46:13;14.30;16.70
14053;DHT22;7101;51.600;7.310;2022-09-16T06:48:41;14.50;16.10
14053;DHT22;7101;51.600;7.310;2022-09-16T06:51:10;14.70;6.10
14053;DHT22;7101;51.600;7.310;2022-09-16T06:53:37;14.90;1.00
14053;DHT22;7101;51.600;7.310;2022-09-16T06:56:05;14.70;1.00
14053;DHT22;7101;51.600;7.310;2022-09-16T06:58:34;14.50;1.00
14053;DHT22;7101;51.600;7.310;2022-09-16T07:01:05;14.30;1.00
14053;DHT22;7101;51.600;7.310;2022-09-16T07:03:32;14.00;1.00
14053;DHT22;7101;51.600;7.310;2022-09-16T07:06:00;13.70;6.70
14053;DHT22;7101;51.600;7.310;2022-09-16T07:08:28;13.60;25.00
14053;DHT22;7101;51.600;7.310;2022-09-16T07:10:57;13.70;23.20
14053;DHT22;7101;51.600;7.310;2022-09-16T07:13:23;13.70;22.70
14053;DHT22;7101;51.600;7.310;2022-09-16T07:15:50;13.80;9.60
14053;DHT22;7101;51.600;7.310;2022-09-16T07:18:19;13.80;25.80
14053;DHT22;7101;51.600;7.310;2022-09-16T07:20:45;13.90;21.50
14053;DHT22;7101;51.600;7.310;2022-09-16T07:23:12;13.80;10.20
14053;DHT22;7101;51.600;7.310;2022-09-16T07:25:39;13.90;24.80
14053;DHT22;7101;51.600;7.310;2022-09-16T07:28:06;13.90;15.30
14053;DHT22;7101;51.600;7.310;2022-09-16T07:30:32;14.20;18.20
14053;DHT22;7101;51.600;7.310;2022-09-16T07:32:59;14.50;1.30
14053;DHT22;7101;51.600;7.310;2022-09-16T07:35:28;14.90;1.00
14053;DHT22;7101;51.600;7.310;2022-09-16T07:37:54;15.60;1.00
14053;DHT22;7101;51.600;7.310;2022-09-16T07:40:21;15.30;1.00
14053;DHT22;7101;51.600;7.310;2022-09-16T07:42:48;15.80;1.00
14053;DHT22;7101;51.600;7.310;2022-09-16T07:45:15;16.80;1.00
14053;DHT22;7101;51.600;7.310;2022-09-16T07:47:42;17.40;1.00
14053;DHT22;7101;51.600;7.310;2022-09-16T07:50:09;17.80;1.00
14053;DHT22;7101;51.600;7.310;2022-09-16T07:52:38;18.40;1.00
14053;DHT22;7101;51.600;7.310;2022-09-16T07:55:05;18.80;99.90
14053;DHT22;7101;51.600;7.310;2022-09-16T07:57:32;19.00;1.00
14053;DHT22;7101;51.600;7.310;2022-09-16T07:59:59;19.10;99.90
14053;DHT22;7101;51.600;7.310;2022-09-16T08:02:26;19.40;80.60
14053;DHT22;7101;51.600;7.310;2022-09-16T08:04:52;19.70;1.00
14053;DHT22;7101;51.600;7.310;2022-09-16T08:07:19;20.30;99.90
14053;DHT22;7101;51.600;7.310;2022-09-16T08:09:47;20.50;1.00
14053;DHT22;7101;51.600;7.310;2022-09-16T08:12:14;20.10;99.90
14053;DHT22;7101;51.600;7.310;2022-09-16T08:14:41;19.90;99.90
14053;DHT22;7101;51.600;7.310;2022-09-16T08:17:08;19.90;59.80
14053;DHT22;7101;51.600;7.310;2022-09-16T08:19:34;20.00;1.00
14053;DHT22;7101;51.600;7.310;2022-09-16T08:22:03;19.20;1.00
14053;DHT22;7101;51.600;7.310;2022-09-16T08:24:30;18.30;1.00
14053;DHT22;7101;51.600;7.310;2022-09-16T08:26:59;18.10;99.90
14053;DHT22;7101;51.600;7.310;2022-09-16T08:29:26;18.20;99.90
14053;DHT22;7101;51.600;7.310;2022-09-16T08:31:54;17.90;1.00
14053;DHT22;7101;51.600;7.310;2022-09-16T08:34:20;17.90;1.00
14053;DHT22;7101;51.600;7.310;2022-09-16T08:36:47;17.70;99.90
14053;DHT22;7101;51.600;7.310;2022-09-16T08:39:14;17.50;1.00
14053;DHT22;7101;51.600;7.310;2022-09-16T08:42:04;17.50;99.90
14053;DHT22;7101;51.600;7.310;2022-09-16T08:44:39;17.50;99.90
14053;DHT22;7101;51.600;7.310;2022-09-16T08:47:14;17.70;1.00
14053;DHT22;7101;51.600;7.310;2022-09-16T08:49:45;17.70;99.90
14053;DHT22;7101;51.600;7.310;2022-09-16T08:52:29;17.80;1.00
14053;DHT22;7101;51.600;7.310;2022-09-16T08:54:59;18.30;1.00
14053;DHT22;7101;51.600;7.310;2022-09-16T08:57:33;18.40;99.90
14053;DHT22;7101;51.600;7.310;2022-09-16T09:00:07;18.40;99.90
14053;DHT22;7101;51.600;7.310;2022-09-16T09:02:40;18.20;99.90
14053;DHT22;7101;51.600;7.310;2022-09-16T09:05:15;18.30;1.00
14053;DHT22;7101;51.600;7.310;2022-09-16T09:07:54;18.10;99.90
14053;DHT22;7101;51.600;7.310;2022-09-16T09:10:30;18.30;1.00
14053;DHT22;7101;51.600;7.310;2022-09-16T09:13:12;18.20;1.00
14053;DHT22;7101;51.600;7.310;2022-09-16T09:15:49;18.00;99.90
14053;DHT22;7101;51.600;7.310;2022-09-16T09:18:30;18.30;1.00
14053;DHT22;7101;51.600;7.310;2022-09-16T09:21:10;18.60;99.90
14053;DHT22;7101;51.600;7.310;2022-09-16T09:23:48;18.40;1.00
14053;DHT22;7101;51.600;7.310;2022-09-16T09:26:21;18.50;99.90
14053;DHT22;7101;51.600;7.310;2022-09-16T09:29:16;18.40;40.10
14053;DHT22;7101;51.600;7.310;2022-09-16T09:31:56;17.90;99.90
14053;DHT22;7101;51.600;7.310;2022-09-16T09:34:41;18.10;99.90
14053;DHT22;7101;51.600;7.310;2022-09-16T09:37:22;18.10;1.00
14053;DHT22;7101;51.600;7.310;2022-09-16T09:39:59;17.50;1.00
14053;DHT22;7101;51.600;7.310;2022-09-16T09:42:32;17.40;1.00
14053;DHT22;7101;51.600;7.310;2022-09-16T09:45:03;17.10;99.90
14053;DHT22;7101;51.600;7.310;2022-09-16T09:47:34;17.50;99.90
14053;DHT22;7101;51.600;7.310;2022-09-16T09:50:11;17.70;1.00
14053;DHT22;7101;51.600;7.310;2022-09-16T09:52:44;17.70;1.00
14053;DHT22;7101;51.600;7.310;2022-09-16T09:55:15;17.10;1.00
14053;DHT22;7101;51.600;7.310;2022-09-16T09:57:58;16.90;99.90
14053;DHT22;7101;51.600;7.310;2022-09-16T10:00:27;16.80;1.00
14053;DHT22;7101;51.600;7.310;2022-09-16T10:03:01;16.90;99.90
14053;DHT22;7101;51.600;7.310;2022-09-16T10:05:30;16.80;1.00
14053;DHT22;7101;51.600;7.310;2022-09-16T10:08:00;17.10;1.00
14053;DHT22;7101;51.600;7.310;2022-09-16T10:10:31;17.70;1.00
14053;DHT22;7101;51.600;7.310;2022-09-16T10:13:06;17.70;1.00
14053;DHT22;7101;51.600;7.310;2022-09-16T10:15:34;17.60;1.00
14053;DHT22;7101;51.600;7.310;2022-09-16T10:18:01;17.50;1.00
14053;DHT22;7101;51.600;7.310;2022-09-16T10:20:37;17.30;1.00
14053;DHT22;7101;51.600;7.310;2022-09-16T10:23:09;17.10;99.90
14053;DHT22;7101;51.600;7.310;2022-09-16T10:25:37;16.50;1.00
14053;DHT22;7101;51.600;7.310;2022-09-16T10:28:16;15.80;1.00
14053;DHT22;7101;51.600;7.310;2022-09-16T10:30:47;14.80;1.00
14053;DHT22;7101;51.600;7.310;2022-09-16T10:33:21;14.10;1.00
14053;DHT22;7101;51.600;7.310;2022-09-16T10:35:53;13.70;1.00
14053;DHT22;7101;51.600;7.310;2022-09-16T10:38:24;13.30;14.50
14053;DHT22;7101;51.600;7.310;2022-09-16T10:40:53;13.30;35.70
14053;DHT22;7101;51.600;7.310;2022-09-16T10:43:21;13.30;37.80
14053;DHT22;7101;51.600;7.310;2022-09-16T10:45:51;13.60;58.10
14053;DHT22;7101;51.600;7.310;2022-09-16T10:48:20;13.60;37.80
14053;DHT22;7101;51.600;7.310;2022-09-16T10:50:52;13.90;26.30
14053;DHT22;7101;51.600;7.310;2022-09-16T10:53:28;14.00;1.00
14053;DHT22;7101;51.600;7.310;2022-09-16T10:55:57;14.00;1.00
14053;DHT22;7101;51.600;7.310;2022-09-16T10:58:24;14.00;1.00
14053;DHT22;7101;51.600;7.310;2022-09-16T11:01:07;14.40;1.00
14053;DHT22;7101;51.600;7.310;2022-09-16T11:04:04;15.40;1.00
14053;DHT22;7101;51.600;7.310;2022-09-16T11:06:41;16.10;1.00
14053;DHT22;7101;51.600;7.310;2022-09-16T11:09:13;16.50;1.00
14053;DHT22;7101;51.600;7.310;2022-09-16T11:11:50;16.60;1.00
14053;DHT22;7101;51.600;7.310;2022-09-16T11:14:28;16.70;1.00
14053;DHT22;7101;51.600;7.310;2022-09-16T11:17:12;16.70;1.00
14053;DHT22;7101;51.600;7.310;2022-09-16T11:19:49;17.10;1.00
14053;DHT22;7101;51.600;7.310;2022-09-16T11:22:24;17.50;1.00
14053;DHT22;7101;51.600;7.310;2022-09-16T11:27:51;17.30;1.00
14053;DHT22;7101;51.600;7.310;2022-09-16T11:30:21;17.50;1.00
14053;DHT22;7101;51.600;7.310;2022-09-16T11:33:13;17.50;1.00
14053;DHT22;7101;51.600;7.310;2022-09-16T11:36:34;17.80;99.90
14053;DHT22;7101;51.600;7.310;2022-09-16T11:39:12;17.60;12.90
14053;DHT22;7101;51.600;7.310;2022-09-16T11:41:47;17.40;1.00
14053;DHT22;7101;51.600;7.310;2022-09-16T11:44:29;16.80;1.00
14053;DHT22;7101;51.600;7.310;2022-09-16T11:47:14;15.90;1.00
14053;DHT22;7101;51.600;7.310;2022-09-16T11:49:55;15.10;1.00
14053;DHT22;7101;51.600;7.310;2022-09-16T11:52:36;14.20;1.00
14053;DHT22;7101;51.600;7.310;2022-09-16T11:55:27;13.60;1.00
14053;DHT22;7101;51.600;7.310;2022-09-16T11:57:59;12.80;48.20
14053;DHT22;7101;51.600;7.310;2022-09-16T12:00:28;12.30;99.90
14053;DHT22;7101;51.600;7.310;2022-09-16T12:02:59;12.00;99.90
14053;DHT22;7101;51.600;7.310;2022-09-16T12:05:32;12.20;99.90
14053;DHT22;7101;51.600;7.310;2022-09-16T12:08:03;12.70;99.90
14053;DHT22;7101;51.600;7.310;2022-09-16T12:10:37;13.30;99.90
14053;DHT22;7101;51.600;7.310;2022-09-16T12:13:10;14.00;97.10
14053;DHT22;7101;51.600;7.310;2022-09-16T12:15:43;14.20;19.70
14053;DHT22;7101;51.600;7.310;2022-09-16T12:18:15;14.40;99.90
14053;DHT22;7101;51.600;7.310;2022-09-16T12:20:45;14.40;50.90
14053;DHT22;7101;51.600;7.310;2022-09-16T12:23:17;13.80;1.00
14053;DHT22;7101;51.600;7.310;2022-09-16T12:25:50;13.30;39.60
14053;DHT22;7101;51.600;7.310;2022-09-16T12:28:24;12.90;59.70
14053;DHT22;7101;51.600;7.310;2022-09-16T12:30:58;12.30;94.60
14053;DHT22;7101;51.600;7.310;2022-09-16T12:33:32;11.90;99.90
14053;DHT22;7101;51.600;7.310;2022-09-16T12:36:04;11.60;99.90
14053;DHT22;7101;51.600;7.310;2022-09-16T12:38:33;11.40;99.90
14053;DHT22;7101;51.600;7.310;2022-09-16T12:41:11;11.30;99.90
14053;DHT22;7101;51.600;7.310;2022-09-16T12:43:59;11.40;99.90
14053;DHT22;7101;51.600;7.310;2022-09-16T12:49:46;11.90;99.90
14053;DHT22;7101;51.600;7.310;2022-09-16T12:52:25;12.30;99.90
14053;DHT22;7101;51.600;7.310;2022-09-16T12:55:32;12.50;99.90
14053;DHT22;7101;51.600;7.310;2022-09-16T12:58:30;12.90;99.90
14053;DHT22;7101;51.600;7.310;2022-09-16T13:01:12;13.10;99.90
14053;DHT22;7101;51.600;7.310;2022-09-16T13:03:43;13.20;99.90
14053;DHT22;7101;51.600;7.310;2022-09-16T13:06:20;13.00;99.90
14053;DHT22;7101;51.600;7.310;2022-09-16T13:08:49;13.00;99.90
14053;DHT22;7101;51.600;7.310;2022-09-16T13:11:20;13.30;99.90
14053;DHT22;7101;51.600;7.310;2022-09-16T13:13:49;13.30;99.90
14053;DHT22;7101;51.600;7.310;2022-09-16T13:16:28;13.30;99.90
14053;DHT22;7101;51.600;7.310;2022-09-16T13:21:55;13.00;99.90
14053;DHT22;7101;51.600;7.310;2022-09-16T13:24:28;12.90;99.90
14053;DHT22;7101;51.600;7.310;2022-09-16T13:26:56;12.90;99.90
14053;DHT22;7101;51.600;7.310;2022-09-16T13:29:26;12.90;99.90
14053;DHT22;7101;51.600;7.310;2022-09-16T13:31:54;13.10;99.90
14053;DHT22;7101;51.600;7.310;2022-09-16T13:34:21;13.40;99.90
14053;DHT22;7101;51.600;7.310;2022-09-16T13:36:49;13.40;99.90
14053;DHT22;7101;51.600;7.310;2022-09-16T13:39:28;13.70;99.90
14053;DHT22;7101;51.600;7.310;2022-09-16T13:41:56;13.90;99.90
14053;DHT22;7101;51.600;7.310;2022-09-16T13:44:29;13.90;99.90
14053;DHT22;7101;51.600;7.310;2022-09-16T13:47:13;13.90;99.90
14053;DHT22;7101;51.600;7.310;2022-09-16T13:49:44;13.80;99.90
14053;DHT22;7101;51.600;7.310;2022-09-16T13:52:17;13.80;99.90
14053;DHT22;7101;51.600;7.310;2022-09-16T13:54:48;13.90;99.90
14053;DHT22;7101;51.600;7.310;2022-09-16T13:57:34;14.10;99.90
14053;DHT22;7101;51.600;7.310;2022-09-16T14:00:16;14.30;99.90
14053;DHT22;7101;51.600;7.310;2022-09-16T14:08:56;14.60;99.90
14053;DHT22;7101;51.600;7.310;2022-09-16T14:11:32;14.40;99.90
14053;DHT22;7101;51.600;7.310;2022-09-16T14:14:02;14.40;99.90
14053;DHT22;7101;51.600;7.310;2022-09-16T14:16:32;14.60;99.90
14053;DHT22;7101;51.600;7.310;2022-09-16T14:19:01;14.60;99.90
14053;DHT22;7101;51.600;7.310;2022-09-16T14:21:30;14.60;99.90
14053;DHT22;7101;51.600;7.310;2022-09-16T14:24:07;14.50;99.90
14053;DHT22;7101;51.600;7.310;2022-09-16T14:26:35;14.50;99.90
14053;DHT22;7101;51.600;7.310;2022-09-16T14:29:03;14.70;99.90
14053;DHT22;7101;51.600;7.310;2022-09-16T14:31:31;14.70;99.90
14053;DHT22;7101;51.600;7.310;2022-09-16T14:34:00;15.00;99.90
14053;DHT22;7101;51.600;7.310;2022-09-16T14:36:32;15.10;99.90
14053;DHT22;7101;51.600;7.310;2022-09-16T14:39:02;15.10;99.90
14053;DHT22;7101;51.600;7.310;2022-09-16T14:41:34;15.10;99.90
14053;DHT22;7101;51.600;7.310;2022-09-16T14:44:07;15.10;99.90
14053;DHT22;7101;51.600;7.310;2022-09-16T14:46:40;15.20;99.90
14053;DHT22;7101;51.600;7.310;2022-09-16T14:49:09;15.20;99.90
14053;DHT22;7101;51.600;7.310;2022-09-16T14:51:38;15.20;99.90
14053;DHT22;7101;51.600;7.310;2022-09-16T14:54:15;15.20;99.90
14053;DHT22;7101;51.600;7.310;2022-09-16T14:56:42;15.10;99.90
14053;DHT22;7101;51.600;7.310;2022-09-16T14:59:23;15.20;99.90
14053;DHT22;7101;51.600;7.310;2022-09-16T15:01:50;15.20;99.90
14053;DHT22;7101;51.600;7.310;2022-09-16T15:04:22;15.40;99.90
14053;DHT22;7101;51.600;7.310;2022-09-16T15:06:53;15.50;99.90
14053;DHT22;7101;51.600;7.310;2022-09-16T15:09:26;15.60;99.90
14053;DHT22;7101;51.600;7.310;2022-09-16T15:11:58;15.50;99.90
14053;DHT22;7101;51.600;7.310;2022-09-16T15:14:29;15.20;99.90
14053;DHT22;7101;51.600;7.310;2022-09-16T15:16:59;15.00;99.90
14053;DHT22;7101;51.600;7.310;2022-09-16T15:19:30;15.00;99.90
14053;DHT22;7101;51.600;7.310;2022-09-16T15:22:01;14.90;99.90
14053;DHT22;7101;51.600;7.310;2022-09-16T15:24:30;14.80;99.90
14053;DHT22;7101;51.600;7.310;2022-09-16T15:26:58;14.70;99.90
14053;DHT22;7101;51.600;7.310;2022-09-16T15:29:29;14.90;99.90
14053;DHT22;7101;51.600;7.310;2022-09-16T15:32:06;15.30;99.90
14053;DHT22;7101;51.600;7.310;2022-09-16T15:34:39;15.50;99.90
14053;DHT22;7101;51.600;7.310;2022-09-16T15:37:29;15.50;99.90
14053;DHT22;7101;51.600;7.310;2022-09-16T15:40:07;15.10;99.90
14053;DHT22;7101;51.600;7.310;2022-09-16T15:42:35;14.70;99.90
14053;DHT22;7101;51.600;7.310;2022-09-16T15:45:13;14.60;99.90
14053;DHT22;7101;51.600;7.310;2022-09-16T15:47:52;14.50;99.90
14053;DHT22;7101;51.600;7.310;2022-09-16T15:50:22;14.40;99.90
14053;DHT22;7101;51.600;7.310;2022-09-16T15:52:54;14.20;99.90
14053;DHT22;7101;51.600;7.310;2022-09-16T15:55:28;14.30;99.90
14053;DHT22;7101;51.600;7.310;2022-09-16T15:57:59;14.30;99.90
14053;DHT22;7101;51.600;7.310;2022-09-16T16:00:53;14.30;99.90
14053;DHT22;7101;51.600;7.310;2022-09-16T16:03:22;14.20;99.90
14053;DHT22;7101;51.600;7.310;2022-09-16T16:05:50;14.10;99.90
14053;DHT22;7101;51.600;7.310;2022-09-16T16:08:36;14.00;99.90
14053;DHT22;7101;51.600;7.310;2022-09-16T16:11:06;13.80;99.90
14053;DHT22;7101;51.600;7.310;2022-09-16T16:13:33;13.50;99.90
14053;DHT22;7101;51.600;7.310;2022-09-16T16:16:02;13.60;99.90
14053;DHT22;7101;51.600;7.310;2022-09-16T16:18:30;13.50;99.90
14053;DHT22;7101;51.600;7.310;2022-09-16T16:20:59;13.60;99.90
14053;DHT22;7101;51.600;7.310;2022-09-16T16:23:27;13.60;99.90
14053;DHT22;7101;51.600;7.310;2022-09-16T16:25:54;13.60;99.90
14053;DHT22;7101;51.600;7.310;2022-09-16T16:28:20;13.60;99.90
14053;DHT22;7101;51.600;7.310;2022-09-16T16:30:47;13.80;99.90
14053;DHT22;7101;51.600;7.310;2022-09-16T16:33:15;13.70;99.90
14053;DHT22;7101;51.600;7.310;2022-09-16T16:35:42;13.70;99.90